CCA1621 ZBAA-ZYHB
Flight info
| Callsign | CCA1621 |
|---|---|
| Flight time | 1h 23m |
| Altitude | 37100 |
| Route | DOTRA5Y DOTRA B334 TGO G212 RUSBO W203 PIGAM PIG19A |
| Aircraft | A332/H-SDE3GHIJ2J3J5M1RVWXY/LB2D1 |
Departure
| Time | 2026-04-20 20:44 |
|---|---|
| Airport | Beijing Capital International Airport (ZBAA) |
Arrival
| Time | 2026-04-20 22:08 |
|---|---|
| Airport | Harbin Taiping International Airport (ZYHB) |
| Time | Latitude | Longitude | Altitude | Speed | Heading |
|---|---|---|---|---|---|
| 2026-04-20 20:28 | 40.07099 | 116.61061 | 127 ft | 0 kts | 83° |
| 2026-04-20 20:35 | 40.07098 | 116.61055 | 127 ft | 2 kts | 84° |
| 2026-04-20 20:35 | 40.07097 | 116.61030 | 122 ft | 3 kts | 89° |
| 2026-04-20 20:35 | 40.07097 | 116.61004 | 122 ft | 3 kts | 97° |
| 2026-04-20 20:35 | 40.07101 | 116.60978 | 123 ft | 3 kts | 111° |
| 2026-04-20 20:36 | 40.07110 | 116.60956 | 123 ft | 3 kts | 140° |
| 2026-04-20 20:36 | 40.07121 | 116.60948 | 122 ft | 1 kts | 173° |
| 2026-04-20 20:36 | 40.07121 | 116.60947 | 122 ft | 1 kts | 173° |
| 2026-04-20 20:38 | 40.07118 | 116.60948 | 127 ft | 2 kts | 173° |
| 2026-04-20 20:38 | 40.07077 | 116.60954 | 123 ft | 9 kts | 173° |
| 2026-04-20 20:38 | 40.07007 | 116.60965 | 125 ft | 11 kts | 173° |
| 2026-04-20 20:39 | 40.06953 | 116.60961 | 125 ft | 8 kts | 207° |
| 2026-04-20 20:39 | 40.06929 | 116.60896 | 124 ft | 10 kts | 259° |
| 2026-04-20 20:39 | 40.06919 | 116.60790 | 125 ft | 13 kts | 263° |
| 2026-04-20 20:39 | 40.06907 | 116.60654 | 124 ft | 17 kts | 263° |
| 2026-04-20 20:40 | 40.06893 | 116.60501 | 126 ft | 17 kts | 263° |
| 2026-04-20 20:40 | 40.06877 | 116.60327 | 124 ft | 20 kts | 263° |
| 2026-04-20 20:40 | 40.06862 | 116.60171 | 126 ft | 14 kts | 263° |
| 2026-04-20 20:40 | 40.06837 | 116.60066 | 127 ft | 9 kts | 218° |
| 2026-04-20 20:41 | 40.06769 | 116.60059 | 122 ft | 12 kts | 173° |
| 2026-04-20 20:41 | 40.06675 | 116.60074 | 125 ft | 15 kts | 173° |
| 2026-04-20 20:41 | 40.06556 | 116.60092 | 124 ft | 19 kts | 173° |
| 2026-04-20 20:41 | 40.06411 | 116.60115 | 122 ft | 23 kts | 173° |
| 2026-04-20 20:42 | 40.06236 | 116.60143 | 124 ft | 27 kts | 173° |
| 2026-04-20 20:42 | 40.06044 | 116.60173 | 125 ft | 28 kts | 173° |
| 2026-04-20 20:42 | 40.05842 | 116.60204 | 125 ft | 30 kts | 173° |
| 2026-04-20 20:42 | 40.05694 | 116.60227 | 123 ft | 15 kts | 173° |
| 2026-04-20 20:43 | 40.05637 | 116.60178 | 124 ft | 13 kts | 246° |
| 2026-04-20 20:43 | 40.05620 | 116.60043 | 124 ft | 18 kts | 262° |
| 2026-04-20 20:43 | 40.05630 | 116.60008 | 124 ft | 3 kts | 324° |
| 2026-04-20 20:43 | 40.05672 | 116.59996 | 123 ft | 8 kts | 351° |
| 2026-04-20 20:44 | 40.05792 | 116.59977 | 123 ft | 39 kts | 353° |
| 2026-04-20 20:44 | 40.06315 | 116.59894 | 125 ft | 111 kts | 353° |
| 2026-04-20 20:44 | 40.07305 | 116.59739 | 150 ft | 172 kts | 353° |
| 2026-04-20 20:44 | 40.08502 | 116.59564 | 1049 ft | 169 kts | 353° |
| 2026-04-20 20:45 | 40.09675 | 116.59410 | 2069 ft | 170 kts | 350° |
| 2026-04-20 20:45 | 40.10860 | 116.59222 | 2932 ft | 173 kts | 348° |
| 2026-04-20 20:45 | 40.12081 | 116.59012 | 3644 ft | 188 kts | 348° |
| 2026-04-20 20:45 | 40.13503 | 116.58763 | 4029 ft | 224 kts | 349° |
| 2026-04-20 20:46 | 40.15147 | 116.58490 | 4623 ft | 247 kts | 349° |
| 2026-04-20 20:46 | 40.16881 | 116.58217 | 5539 ft | 254 kts | 349° |
| 2026-04-20 20:46 | 40.18655 | 116.57942 | 6532 ft | 259 kts | 350° |
| 2026-04-20 20:46 | 40.20460 | 116.57660 | 7521 ft | 264 kts | 350° |
| 2026-04-20 20:47 | 40.22298 | 116.57373 | 8561 ft | 268 kts | 350° |
| 2026-04-20 20:47 | 40.24158 | 116.57080 | 9603 ft | 271 kts | 349° |
| 2026-04-20 20:47 | 40.26051 | 116.56770 | 10497 ft | 280 kts | 349° |
| 2026-04-20 20:47 | 40.28061 | 116.56428 | 10920 ft | 304 kts | 349° |
| 2026-04-20 20:48 | 40.30226 | 116.56060 | 11449 ft | 320 kts | 349° |
| 2026-04-20 20:48 | 40.32464 | 116.55684 | 12285 ft | 327 kts | 349° |
| 2026-04-20 20:48 | 40.34746 | 116.55302 | 13155 ft | 333 kts | 349° |
| 2026-04-20 20:48 | 40.37060 | 116.54913 | 14008 ft | 338 kts | 349° |
| 2026-04-20 20:49 | 40.39406 | 116.54517 | 14858 ft | 341 kts | 348° |
| 2026-04-20 20:49 | 40.41771 | 116.54169 | 15750 ft | 344 kts | 352° |
| 2026-04-20 20:49 | 40.44179 | 116.54175 | 16656 ft | 348 kts | 357° |
| 2026-04-20 20:49 | 40.46609 | 116.54337 | 17568 ft | 351 kts | 357° |
| 2026-04-20 20:50 | 40.49051 | 116.54526 | 18441 ft | 353 kts | 357° |
| 2026-04-20 20:50 | 40.51512 | 116.54856 | 19158 ft | 361 kts | 4° |
| 2026-04-20 20:50 | 40.53925 | 116.55957 | 19877 ft | 377 kts | 20° |
| 2026-04-20 20:50 | 40.56115 | 116.57974 | 20602 ft | 390 kts | 31° |
| 2026-04-20 20:51 | 40.58200 | 116.60296 | 21304 ft | 395 kts | 32° |
| 2026-04-20 20:51 | 40.60284 | 116.62677 | 21952 ft | 399 kts | 32° |
| 2026-04-20 20:51 | 40.62388 | 116.65075 | 22630 ft | 401 kts | 31° |
| 2026-04-20 20:51 | 40.64508 | 116.67484 | 23327 ft | 404 kts | 30° |
| 2026-04-20 20:52 | 40.66649 | 116.69912 | 23907 ft | 408 kts | 30° |
| 2026-04-20 20:52 | 40.68816 | 116.72363 | 24316 ft | 414 kts | 30° |
| 2026-04-20 20:52 | 40.70986 | 116.74813 | 24747 ft | 419 kts | 29° |
| 2026-04-20 20:52 | 40.73292 | 116.77141 | 25144 ft | 415 kts | 22° |
| 2026-04-20 20:53 | 40.75803 | 116.78917 | 25595 ft | 405 kts | 11° |
| 2026-04-20 20:53 | 40.78448 | 116.80019 | 26006 ft | 394 kts | 1° |
| 2026-04-20 20:53 | 40.81141 | 116.80521 | 26512 ft | 389 kts | 354° |
| 2026-04-20 20:53 | 40.83840 | 116.80779 | 26966 ft | 389 kts | 352° |
| 2026-04-20 20:54 | 40.86549 | 116.80922 | 27405 ft | 391 kts | 351° |
| 2026-04-20 20:54 | 40.89276 | 116.81016 | 27865 ft | 393 kts | 350° |
| 2026-04-20 20:54 | 40.92018 | 116.81103 | 28346 ft | 396 kts | 349° |
| 2026-04-20 20:54 | 40.94789 | 116.81202 | 28750 ft | 401 kts | 349° |
| 2026-04-20 20:55 | 40.97591 | 116.81318 | 29185 ft | 405 kts | 349° |
| 2026-04-20 20:55 | 41.00414 | 116.81458 | 29765 ft | 406 kts | 350° |
| 2026-04-20 20:55 | 41.03243 | 116.81606 | 30255 ft | 408 kts | 349° |
| 2026-04-20 20:55 | 41.06089 | 116.81755 | 30598 ft | 412 kts | 349° |
| 2026-04-20 20:56 | 41.08966 | 116.81902 | 30911 ft | 415 kts | 349° |
| 2026-04-20 20:56 | 41.11864 | 116.82048 | 31305 ft | 419 kts | 349° |
| 2026-04-20 20:56 | 41.14788 | 116.82201 | 31690 ft | 422 kts | 349° |
| 2026-04-20 20:56 | 41.17732 | 116.82356 | 32080 ft | 424 kts | 349° |
| 2026-04-20 20:57 | 41.20664 | 116.82519 | 32714 ft | 420 kts | 348° |
| 2026-04-20 20:57 | 41.23579 | 116.82686 | 33259 ft | 418 kts | 348° |
| 2026-04-20 20:57 | 41.26487 | 116.82845 | 33706 ft | 418 kts | 347° |
| 2026-04-20 20:57 | 41.29360 | 116.82998 | 34145 ft | 418 kts | 347° |
| 2026-04-20 20:58 | 41.32262 | 116.83151 | 34592 ft | 418 kts | 347° |
| 2026-04-20 20:58 | 41.35165 | 116.83306 | 34993 ft | 417 kts | 347° |
| 2026-04-20 20:58 | 41.38060 | 116.83462 | 35470 ft | 416 kts | 346° |
| 2026-04-20 20:58 | 41.40945 | 116.83613 | 35890 ft | 414 kts | 346° |
| 2026-04-20 20:59 | 41.43829 | 116.83761 | 36205 ft | 415 kts | 346° |
| 2026-04-20 20:59 | 41.46717 | 116.83907 | 36528 ft | 416 kts | 346° |
| 2026-04-20 20:59 | 41.49612 | 116.84057 | 36892 ft | 417 kts | 346° |
| 2026-04-20 20:59 | 41.52512 | 116.84209 | 37125 ft | 418 kts | 346° |
| 2026-04-20 21:00 | 41.58327 | 116.84523 | 37164 ft | 419 kts | 347° |
| 2026-04-20 21:00 | 41.61264 | 116.84948 | 37153 ft | 432 kts | 354° |
| 2026-04-20 21:00 | 41.64244 | 116.85919 | 37150 ft | 450 kts | 2° |
| 2026-04-20 21:01 | 41.67197 | 116.87566 | 37145 ft | 471 kts | 12° |
| 2026-04-20 21:01 | 41.70020 | 116.89988 | 37144 ft | 494 kts | 24° |
| 2026-04-20 21:01 | 41.72573 | 116.93225 | 37219 ft | 518 kts | 37° |
| 2026-04-20 21:01 | 41.74687 | 116.97224 | 37152 ft | 537 kts | 50° |
| 2026-04-20 21:02 | 41.78031 | 117.06257 | 37149 ft | 544 kts | 56° |
| 2026-04-20 21:02 | 41.81126 | 117.15534 | 37147 ft | 545 kts | 57° |
| 2026-04-20 21:03 | 41.84228 | 117.24796 | 37142 ft | 544 kts | 56° |
| 2026-04-20 21:03 | 41.87387 | 117.34014 | 37136 ft | 544 kts | 56° |
| 2026-04-20 21:04 | 41.90553 | 117.43243 | 37111 ft | 544 kts | 55° |
| 2026-04-20 21:04 | 41.93730 | 117.52483 | 37130 ft | 546 kts | 56° |
| 2026-04-20 21:05 | 41.96893 | 117.61736 | 37126 ft | 544 kts | 56° |
| 2026-04-20 21:05 | 42.00092 | 117.71165 | 37123 ft | 543 kts | 56° |
| 2026-04-20 21:06 | 42.03212 | 117.80405 | 37107 ft | 543 kts | 56° |
| 2026-04-20 21:06 | 42.06332 | 117.89661 | 37125 ft | 542 kts | 56° |
| 2026-04-20 21:07 | 42.09432 | 117.98861 | 37099 ft | 539 kts | 56° |
| 2026-04-20 21:07 | 42.12000 | 118.06491 | 37101 ft | 538 kts | 56° |
| 2026-04-20 21:08 | 42.15076 | 118.15655 | 37089 ft | 536 kts | 56° |
| 2026-04-20 21:08 | 42.18123 | 118.24828 | 37084 ft | 535 kts | 56° |
| 2026-04-20 21:09 | 42.21308 | 118.33859 | 37068 ft | 532 kts | 54° |
| 2026-04-20 21:09 | 42.24592 | 118.42804 | 37067 ft | 532 kts | 53° |
| 2026-04-20 21:10 | 42.27888 | 118.51743 | 37139 ft | 532 kts | 54° |
| 2026-04-20 21:10 | 42.31122 | 118.60695 | 37053 ft | 529 kts | 54° |
| 2026-04-20 21:11 | 42.34324 | 118.69634 | 37042 ft | 528 kts | 54° |
| 2026-04-20 21:11 | 42.37522 | 118.78569 | 37043 ft | 528 kts | 54° |
| 2026-04-20 21:12 | 42.40693 | 118.87448 | 37044 ft | 527 kts | 55° |
| 2026-04-20 21:12 | 42.43870 | 118.96368 | 37038 ft | 526 kts | 55° |
| 2026-04-20 21:13 | 42.47042 | 119.05289 | 37034 ft | 525 kts | 55° |
| 2026-04-20 21:13 | 42.50208 | 119.14213 | 37067 ft | 526 kts | 55° |
| 2026-04-20 21:14 | 42.53350 | 119.23134 | 37025 ft | 523 kts | 55° |
| 2026-04-20 21:14 | 42.56474 | 119.32033 | 37030 ft | 523 kts | 55° |
| 2026-04-20 21:15 | 42.59597 | 119.40939 | 37026 ft | 523 kts | 55° |
| 2026-04-20 21:15 | 42.62714 | 119.49850 | 37024 ft | 521 kts | 55° |
| 2026-04-20 21:16 | 42.65806 | 119.58736 | 37019 ft | 520 kts | 55° |
| 2026-04-20 21:16 | 42.68891 | 119.67620 | 37019 ft | 519 kts | 55° |
| 2026-04-20 21:17 | 42.71971 | 119.76519 | 37017 ft | 520 kts | 56° |
| 2026-04-20 21:17 | 42.75038 | 119.85409 | 37016 ft | 519 kts | 56° |
| 2026-04-20 21:18 | 42.78100 | 119.94313 | 37019 ft | 519 kts | 56° |
| 2026-04-20 21:18 | 42.81152 | 120.03218 | 37025 ft | 519 kts | 56° |
| 2026-04-20 21:19 | 42.84200 | 120.12137 | 37011 ft | 519 kts | 56° |
| 2026-04-20 21:20 | 42.88758 | 120.25532 | 37009 ft | 519 kts | 56° |
| 2026-04-20 21:20 | 42.91789 | 120.34479 | 37012 ft | 520 kts | 56° |
| 2026-04-20 21:21 | 42.94794 | 120.43376 | 37014 ft | 520 kts | 56° |
| 2026-04-20 21:21 | 42.97842 | 120.52317 | 37023 ft | 518 kts | 55° |
| 2026-04-20 21:22 | 43.00996 | 120.61159 | 37002 ft | 517 kts | 54° |
| 2026-04-20 21:22 | 43.04169 | 120.69985 | 37046 ft | 518 kts | 54° |
| 2026-04-20 21:23 | 43.07330 | 120.78841 | 37017 ft | 519 kts | 55° |
| 2026-04-20 21:23 | 43.10484 | 120.87735 | 37010 ft | 520 kts | 55° |
| 2026-04-20 21:24 | 43.13633 | 120.96663 | 37008 ft | 521 kts | 55° |
| 2026-04-20 21:24 | 43.16776 | 121.05601 | 37054 ft | 521 kts | 56° |
| 2026-04-20 21:25 | 43.19912 | 121.14547 | 37011 ft | 521 kts | 56° |
| 2026-04-20 21:25 | 43.23046 | 121.23515 | 37010 ft | 522 kts | 56° |
| 2026-04-20 21:26 | 43.26174 | 121.32492 | 37010 ft | 522 kts | 56° |
| 2026-04-20 21:26 | 43.29294 | 121.41479 | 37028 ft | 522 kts | 56° |
| 2026-04-20 21:27 | 43.32411 | 121.50484 | 37009 ft | 523 kts | 56° |
| 2026-04-20 21:27 | 43.35527 | 121.59516 | 37009 ft | 524 kts | 56° |
| 2026-04-20 21:28 | 43.38644 | 121.68582 | 37008 ft | 524 kts | 56° |
| 2026-04-20 21:28 | 43.41743 | 121.77633 | 37007 ft | 522 kts | 57° |
| 2026-04-20 21:29 | 43.44827 | 121.86666 | 37004 ft | 522 kts | 57° |
| 2026-04-20 21:29 | 43.47910 | 121.95720 | 37005 ft | 522 kts | 57° |
| 2026-04-20 21:30 | 43.50980 | 122.04767 | 37010 ft | 522 kts | 57° |
| 2026-04-20 21:30 | 43.54042 | 122.13825 | 37000 ft | 521 kts | 57° |
| 2026-04-20 21:31 | 43.57514 | 122.22375 | 37001 ft | 509 kts | 46° |
| 2026-04-20 21:31 | 43.61554 | 122.30374 | 36992 ft | 508 kts | 45° |
| 2026-04-20 21:32 | 43.65689 | 122.38269 | 36992 ft | 506 kts | 44° |
| 2026-04-20 21:32 | 43.69818 | 122.46148 | 36992 ft | 506 kts | 45° |
| 2026-04-20 21:33 | 43.73930 | 122.54048 | 36986 ft | 506 kts | 45° |
| 2026-04-20 21:33 | 43.78029 | 122.61968 | 36976 ft | 505 kts | 45° |
| 2026-04-20 21:34 | 43.82109 | 122.69881 | 36988 ft | 505 kts | 45° |
| 2026-04-20 21:34 | 43.86183 | 122.77799 | 36992 ft | 504 kts | 45° |
| 2026-04-20 21:35 | 43.90249 | 122.85724 | 37005 ft | 504 kts | 45° |
| 2026-04-20 21:35 | 43.94314 | 122.93649 | 36979 ft | 503 kts | 45° |
| 2026-04-20 21:36 | 43.98441 | 123.01488 | 36973 ft | 502 kts | 44° |
| 2026-04-20 21:36 | 44.02588 | 123.09287 | 36973 ft | 502 kts | 44° |
| 2026-04-20 21:37 | 44.06729 | 123.17106 | 36965 ft | 502 kts | 45° |
| 2026-04-20 21:37 | 44.10854 | 123.24937 | 36967 ft | 502 kts | 45° |
| 2026-04-20 21:38 | 44.14968 | 123.32779 | 36962 ft | 502 kts | 45° |
| 2026-04-20 21:38 | 44.19080 | 123.40637 | 36962 ft | 502 kts | 45° |
| 2026-04-20 21:39 | 44.23185 | 123.48503 | 36952 ft | 502 kts | 45° |
| 2026-04-20 21:39 | 44.27266 | 123.56340 | 36946 ft | 503 kts | 45° |
| 2026-04-20 21:40 | 44.31368 | 123.64242 | 36949 ft | 503 kts | 46° |
| 2026-04-20 21:40 | 44.35461 | 123.72152 | 36943 ft | 502 kts | 46° |
| 2026-04-20 21:41 | 44.39542 | 123.80058 | 36936 ft | 502 kts | 46° |
| 2026-04-20 21:41 | 44.43619 | 123.87978 | 36925 ft | 502 kts | 46° |
| 2026-04-20 21:42 | 44.47695 | 123.95867 | 36914 ft | 498 kts | 46° |
| 2026-04-20 21:42 | 44.51774 | 124.03678 | 36918 ft | 496 kts | 46° |
| 2026-04-20 21:43 | 44.56300 | 124.10766 | 36905 ft | 478 kts | 30° |
| 2026-04-20 21:43 | 44.58991 | 124.13387 | 36911 ft | 465 kts | 21° |
| 2026-04-20 21:43 | 44.61842 | 124.15470 | 36899 ft | 459 kts | 18° |
| 2026-04-20 21:44 | 44.67614 | 124.19219 | 36890 ft | 458 kts | 18° |
| 2026-04-20 21:44 | 44.70380 | 124.21542 | 36891 ft | 469 kts | 28° |
| 2026-04-20 21:44 | 44.72838 | 124.24643 | 36893 ft | 482 kts | 41° |
| 2026-04-20 21:45 | 44.77001 | 124.32144 | 36898 ft | 488 kts | 47° |
| 2026-04-20 21:45 | 44.80998 | 124.39829 | 36878 ft | 485 kts | 47° |
| 2026-04-20 21:46 | 44.85011 | 124.47559 | 36323 ft | 494 kts | 47° |
| 2026-04-20 21:46 | 44.87048 | 124.51487 | 35435 ft | 501 kts | 46° |
| 2026-04-20 21:46 | 44.89120 | 124.55486 | 34495 ft | 508 kts | 46° |
| 2026-04-20 21:46 | 44.91206 | 124.59523 | 33767 ft | 509 kts | 46° |
| 2026-04-20 21:47 | 44.93282 | 124.63553 | 32917 ft | 509 kts | 46° |
| 2026-04-20 21:47 | 44.95370 | 124.67610 | 32045 ft | 510 kts | 45° |
| 2026-04-20 21:47 | 44.97452 | 124.71658 | 31196 ft | 509 kts | 45° |
| 2026-04-20 21:47 | 44.99519 | 124.75687 | 30589 ft | 504 kts | 45° |
| 2026-04-20 21:48 | 45.01564 | 124.79683 | 29974 ft | 498 kts | 44° |
| 2026-04-20 21:48 | 45.03556 | 124.83576 | 29349 ft | 492 kts | 44° |
| 2026-04-20 21:48 | 45.05577 | 124.87527 | 28630 ft | 486 kts | 44° |
| 2026-04-20 21:48 | 45.07521 | 124.91331 | 27947 ft | 481 kts | 44° |
| 2026-04-20 21:49 | 45.09467 | 124.95146 | 27246 ft | 476 kts | 44° |
| 2026-04-20 21:49 | 45.11396 | 124.98929 | 26563 ft | 471 kts | 44° |
| 2026-04-20 21:49 | 45.13296 | 125.02662 | 25927 ft | 466 kts | 43° |
| 2026-04-20 21:49 | 45.15183 | 125.06372 | 25277 ft | 461 kts | 43° |
| 2026-04-20 21:50 | 45.17045 | 125.10040 | 24694 ft | 456 kts | 43° |
| 2026-04-20 21:50 | 45.18883 | 125.13668 | 24188 ft | 449 kts | 43° |
| 2026-04-20 21:50 | 45.20698 | 125.17251 | 23516 ft | 446 kts | 43° |
| 2026-04-20 21:50 | 45.22501 | 125.20810 | 22837 ft | 442 kts | 43° |
| 2026-04-20 21:51 | 45.24281 | 125.24334 | 22118 ft | 437 kts | 43° |
| 2026-04-20 21:51 | 45.26044 | 125.27827 | 21438 ft | 432 kts | 43° |
| 2026-04-20 21:51 | 45.27784 | 125.31280 | 20761 ft | 428 kts | 43° |
| 2026-04-20 21:51 | 45.29506 | 125.34700 | 20092 ft | 424 kts | 43° |
| 2026-04-20 21:52 | 45.31206 | 125.38080 | 19468 ft | 420 kts | 43° |
| 2026-04-20 21:52 | 45.32894 | 125.41442 | 18819 ft | 415 kts | 43° |
| 2026-04-20 21:52 | 45.34562 | 125.44764 | 18190 ft | 411 kts | 43° |
| 2026-04-20 21:52 | 45.36215 | 125.48062 | 17507 ft | 407 kts | 44° |
| 2026-04-20 21:53 | 45.37845 | 125.51320 | 16799 ft | 402 kts | 44° |
| 2026-04-20 21:53 | 45.39459 | 125.54545 | 16099 ft | 399 kts | 44° |
| 2026-04-20 21:53 | 45.41053 | 125.57736 | 15450 ft | 393 kts | 44° |
| 2026-04-20 21:53 | 45.42622 | 125.60911 | 14782 ft | 390 kts | 46° |
| 2026-04-20 21:54 | 45.44130 | 125.64110 | 14140 ft | 387 kts | 47° |
| 2026-04-20 21:54 | 45.45605 | 125.67291 | 13546 ft | 383 kts | 48° |
| 2026-04-20 21:54 | 45.47060 | 125.70438 | 12817 ft | 379 kts | 48° |
| 2026-04-20 21:54 | 45.48505 | 125.73563 | 12222 ft | 373 kts | 48° |
| 2026-04-20 21:55 | 45.49884 | 125.76570 | 12194 ft | 351 kts | 48° |
| 2026-04-20 21:55 | 45.51182 | 125.79404 | 12176 ft | 331 kts | 47° |
| 2026-04-20 21:55 | 45.52408 | 125.82075 | 12150 ft | 314 kts | 47° |
| 2026-04-20 21:55 | 45.53597 | 125.84650 | 11755 ft | 310 kts | 46° |
| 2026-04-20 21:56 | 45.54388 | 125.86350 | 11395 ft | 311 kts | 47° |
| 2026-04-20 21:56 | 45.55586 | 125.88928 | 10912 ft | 311 kts | 47° |
| 2026-04-20 21:56 | 45.56774 | 125.91500 | 10475 ft | 310 kts | 47° |
| 2026-04-20 21:56 | 45.57954 | 125.94063 | 10023 ft | 308 kts | 47° |
| 2026-04-20 21:57 | 45.59128 | 125.96617 | 9591 ft | 307 kts | 48° |
| 2026-04-20 21:57 | 45.60297 | 125.99165 | 9130 ft | 305 kts | 48° |
| 2026-04-20 21:57 | 45.61457 | 126.01694 | 8674 ft | 304 kts | 48° |
| 2026-04-20 21:57 | 45.62609 | 126.04210 | 8243 ft | 302 kts | 49° |
| 2026-04-20 21:58 | 45.63799 | 126.06593 | 8099 ft | 283 kts | 39° |
| 2026-04-20 21:58 | 45.65162 | 126.08447 | 8085 ft | 261 kts | 31° |
| 2026-04-20 21:58 | 45.66512 | 126.10057 | 8082 ft | 245 kts | 28° |
| 2026-04-20 21:58 | 45.67799 | 126.11556 | 8067 ft | 232 kts | 28° |
| 2026-04-20 21:59 | 45.69021 | 126.12977 | 8023 ft | 222 kts | 27° |
| 2026-04-20 21:59 | 45.70225 | 126.14366 | 7684 ft | 225 kts | 27° |
| 2026-04-20 21:59 | 45.71457 | 126.15783 | 7354 ft | 229 kts | 28° |
| 2026-04-20 21:59 | 45.72697 | 126.17222 | 7066 ft | 230 kts | 28° |
| 2026-04-20 22:00 | 45.73933 | 126.18667 | 6831 ft | 230 kts | 29° |
| 2026-04-20 22:00 | 45.75176 | 126.20121 | 6549 ft | 230 kts | 29° |
| 2026-04-20 22:00 | 45.76414 | 126.21574 | 6296 ft | 230 kts | 30° |
| 2026-04-20 22:00 | 45.77649 | 126.23025 | 6048 ft | 229 kts | 30° |
| 2026-04-20 22:01 | 45.78880 | 126.24472 | 5808 ft | 228 kts | 30° |
| 2026-04-20 22:01 | 45.79991 | 126.26106 | 5595 ft | 237 kts | 51° |
| 2026-04-20 22:01 | 45.80458 | 126.28413 | 5369 ft | 249 kts | 85° |
| 2026-04-20 22:01 | 45.80059 | 126.30815 | 5144 ft | 251 kts | 119° |
| 2026-04-20 22:02 | 45.79050 | 126.32775 | 4982 ft | 245 kts | 135° |
| 2026-04-20 22:02 | 45.77875 | 126.34503 | 4818 ft | 240 kts | 138° |
| 2026-04-20 22:02 | 45.76691 | 126.36182 | 4621 ft | 239 kts | 139° |
| 2026-04-20 22:02 | 45.75427 | 126.37680 | 4384 ft | 233 kts | 159° |
| 2026-04-20 22:03 | 45.73910 | 126.38239 | 4147 ft | 221 kts | 183° |
| 2026-04-20 22:03 | 45.72439 | 126.38084 | 3868 ft | 204 kts | 214° |
| 2026-04-20 22:03 | 45.71344 | 126.36977 | 3704 ft | 184 kts | 233° |
| 2026-04-20 22:03 | 45.70436 | 126.35807 | 3553 ft | 170 kts | 233° |
| 2026-04-20 22:04 | 45.69535 | 126.34728 | 3180 ft | 169 kts | 231° |
| 2026-04-20 22:04 | 45.68632 | 126.33672 | 2828 ft | 166 kts | 232° |
| 2026-04-20 22:04 | 45.67747 | 126.32639 | 2446 ft | 161 kts | 232° |
| 2026-04-20 22:04 | 45.66917 | 126.31668 | 2211 ft | 148 kts | 233° |
| 2026-04-20 22:05 | 45.66153 | 126.30769 | 2023 ft | 136 kts | 233° |
| 2026-04-20 22:05 | 45.65457 | 126.29951 | 1841 ft | 124 kts | 234° |
| 2026-04-20 22:05 | 45.64798 | 126.29170 | 1679 ft | 123 kts | 232° |
| 2026-04-20 22:05 | 45.64144 | 126.28400 | 1490 ft | 122 kts | 230° |
| 2026-04-20 22:06 | 45.63494 | 126.27631 | 1312 ft | 120 kts | 228° |
| 2026-04-20 22:06 | 45.62857 | 126.26881 | 1135 ft | 118 kts | 225° |
| 2026-04-20 22:06 | 45.62221 | 126.26157 | 990 ft | 116 kts | 224° |
| 2026-04-20 22:06 | 45.61597 | 126.25438 | 830 ft | 115 kts | 223° |
| 2026-04-20 22:07 | 45.60993 | 126.24703 | 679 ft | 114 kts | 221° |
| 2026-04-20 22:07 | 45.60370 | 126.23970 | 548 ft | 117 kts | 220° |
| 2026-04-20 22:07 | 45.59755 | 126.23253 | 477 ft | 102 kts | 220° |
| 2026-04-20 22:07 | 45.59360 | 126.22786 | 480 ft | 52 kts | 219° |
| 2026-04-20 22:08 | 45.59115 | 126.22497 | 487 ft | 35 kts | 220° |
| 2026-04-20 22:08 | 45.58968 | 126.22321 | 487 ft | 26 kts | 228° |
| 2026-04-20 22:08 | 45.58907 | 126.22168 | 486 ft | 7 kts | 245° |
| 2026-04-20 22:08 | 45.58879 | 126.22084 | 488 ft | 13 kts | 245° |
| 2026-04-20 22:09 | 45.58831 | 126.21943 | 491 ft | 19 kts | 244° |
| 2026-04-20 22:09 | 45.58777 | 126.21824 | 499 ft | 10 kts | 221° |
| 2026-04-20 22:09 | 45.58769 | 126.21725 | 500 ft | 13 kts | 301° |
| 2026-04-20 22:09 | 45.58812 | 126.21719 | 499 ft | 8 kts | 25° |
| 2026-04-20 22:10 | 45.58887 | 126.21800 | 488 ft | 19 kts | 39° |
| 2026-04-20 22:10 | 45.59012 | 126.21947 | 485 ft | 28 kts | 39° |
| 2026-04-20 22:10 | 45.59176 | 126.22139 | 487 ft | 32 kts | 39° |
| 2026-04-20 22:10 | 45.59312 | 126.22301 | 483 ft | 25 kts | 39° |
| 2026-04-20 22:11 | 45.59454 | 126.22467 | 481 ft | 27 kts | 39° |
| 2026-04-20 22:11 | 45.59605 | 126.22646 | 479 ft | 29 kts | 40° |
| 2026-04-20 22:11 | 45.59736 | 126.22799 | 479 ft | 23 kts | 39° |
| 2026-04-20 22:11 | 45.59869 | 126.22957 | 476 ft | 27 kts | 39° |
| 2026-04-20 22:12 | 45.60018 | 126.23132 | 474 ft | 29 kts | 39° |
| 2026-04-20 22:12 | 45.60152 | 126.23289 | 471 ft | 24 kts | 39° |
| 2026-04-20 22:12 | 45.60254 | 126.23410 | 470 ft | 14 kts | 39° |
| 2026-04-20 22:12 | 45.60303 | 126.23461 | 470 ft | 6 kts | 17° |
| 2026-04-20 22:13 | 45.60350 | 126.23433 | 471 ft | 9 kts | 320° |
| 2026-04-20 22:13 | 45.60395 | 126.23356 | 470 ft | 12 kts | 309° |
| 2026-04-20 22:13 | 45.60455 | 126.23255 | 469 ft | 15 kts | 310° |
| 2026-04-20 22:13 | 45.60528 | 126.23131 | 470 ft | 18 kts | 310° |
| 2026-04-20 22:14 | 45.60613 | 126.22987 | 470 ft | 20 kts | 310° |
| 2026-04-20 22:14 | 45.60709 | 126.22825 | 468 ft | 22 kts | 310° |
| 2026-04-20 22:14 | 45.60779 | 126.22706 | 468 ft | 11 kts | 309° |
| 2026-04-20 22:14 | 45.60838 | 126.22690 | 468 ft | 10 kts | 25° |
| 2026-04-20 22:15 | 45.60903 | 126.22760 | 470 ft | 14 kts | 39° |
| 2026-04-20 22:15 | 45.60998 | 126.22872 | 467 ft | 21 kts | 40° |
| 2026-04-20 22:15 | 45.61124 | 126.23022 | 469 ft | 26 kts | 39° |
| 2026-04-20 22:15 | 45.61256 | 126.23170 | 468 ft | 22 kts | 38° |
| 2026-04-20 22:16 | 45.61347 | 126.23276 | 465 ft | 10 kts | 39° |
| 2026-04-20 22:16 | 45.61405 | 126.23325 | 470 ft | 9 kts | 11° |
| 2026-04-20 22:16 | 45.61477 | 126.23327 | 470 ft | 9 kts | 359° |
| 2026-04-20 22:16 | 45.61515 | 126.23325 | 468 ft | 1 kts | 359° |
| 2026-04-20 22:17 | 45.61523 | 126.23325 | 469 ft | 0 kts | 359° |